Time;durP1;ratioP1;P1;durP2;ratioP2;P2;SDS_P1;SDS_P2;PMS_P1;PMS_P2;Temp;Humidity;BMP_temperature;BMP_pressure;BME280_temperature;BME280_humidity;BME280_pressure;Samples;Min_cycle;Max_cycle;Signal;HPM_P1;HPM_P2
2023/07/31 00:00:23;;;;;;;16.90;4.88;;;;;;;;;;5091874;28;20020;-85
2023/07/31 00:02:49;;;;;;;12.80;4.90;;;;;;;;;;5090023;28;20040;-84
2023/07/31 00:05:15;;;;;;;12.70;4.93;;;;;;;;;;5096536;28;20020;-85
2023/07/31 00:07:41;;;;;;;14.75;5.32;;;;;;;;;;5092353;28;20109;-85
2023/07/31 00:10:06;;;;;;;13.82;5.07;;;;;;;;;;5090107;28;20020;-86
2023/07/31 00:12:32;;;;;;;13.95;5.47;;;;;;;;;;5093867;28;20020;-85
2023/07/31 00:14:58;;;;;;;18.35;5.25;;;;;;;;;;5095568;28;20028;-85
2023/07/31 00:17:23;;;;;;;14.02;5.40;;;;;;;;;;5099099;28;20383;-83
2023/07/31 00:19:50;;;;;;;17.67;5.97;;;;;;;;;;5099592;28;20059;-84
2023/07/31 00:22:16;;;;;;;14.82;5.38;;;;;;;;;;5100191;28;20020;-83
2023/07/31 00:24:41;;;;;;;16.52;5.82;;;;;;;;;;5096429;28;20038;-85
2023/07/31 00:27:06;;;;;;;10.65;4.82;;;;;;;;;;5104127;28;20027;-85
2023/07/31 00:29:32;;;;;;;11.55;5.15;;;;;;;;;;5102993;28;20252;-84
2023/07/31 00:31:57;;;;;;;13.70;5.38;;;;;;;;;;5101417;28;20436;-85
2023/07/31 00:34:23;;;;;;;14.15;5.60;;;;;;;;;;5093981;28;20492;-85
2023/07/31 00:36:48;;;;;;;13.80;4.97;;;;;;;;;;5093398;28;20032;-83
2023/07/31 00:39:13;;;;;;;11.27;4.20;;;;;;;;;;5104280;28;20030;-83
2023/07/31 00:41:39;;;;;;;14.45;5.10;;;;;;;;;;5102448;28;20031;-84
2023/07/31 00:44:04;;;;;;;16.17;5.60;;;;;;;;;;5100327;28;20438;-84
2023/07/31 00:46:29;;;;;;;13.40;5.05;;;;;;;;;;5092185;28;20036;-83
2023/07/31 00:48:55;;;;;;;12.50;4.50;;;;;;;;;;5105050;28;20016;-84
2023/07/31 00:51:21;;;;;;;11.75;4.57;;;;;;;;;;5101619;28;20012;-81
2023/07/31 00:53:47;;;;;;;14.35;4.50;;;;;;;;;;5086749;28;20073;-84
2023/07/31 00:56:12;;;;;;;9.15;4.18;;;;;;;;;;5082452;28;20028;-83
2023/07/31 00:58:38;;;;;;;11.60;4.40;;;;;;;;;;5099627;28;20028;-84
2023/07/31 01:01:04;;;;;;;14.80;4.32;;;;;;;;;;5102508;28;20028;-83
2023/07/31 01:03:29;;;;;;;18.27;5.32;;;;;;;;;;5095668;28;20076;-84
2023/07/31 01:05:57;;;;;;;14.23;4.57;;;;;;;;;;5099042;28;20399;-84
2023/07/31 01:08:40;;;;;;;12.00;4.40;;;;;;;;;;5099418;28;20048;-83
2023/07/31 01:11:15;;;;;;;13.88;4.65;;;;;;;;;;5091415;28;20383;-80
2023/07/31 01:13:42;;;;;;;13.00;4.47;;;;;;;;;;5096099;28;20017;-83
2023/07/31 01:16:07;;;;;;;14.73;4.40;;;;;;;;;;5095038;28;20497;-84
2023/07/31 01:18:32;;;;;;;13.23;4.50;;;;;;;;;;5094802;28;20023;-83
2023/07/31 01:21:11;;;;;;;12.70;4.47;;;;;;;;;;5093809;28;20020;-83
2023/07/31 01:24:01;;;;;;;15.13;4.47;;;;;;;;;;5095480;28;20065;-83
2023/07/31 01:26:32;;;;;;;14.32;4.50;;;;;;;;;;5093693;28;20016;-83
2023/07/31 01:29:15;;;;;;;11.38;4.35;;;;;;;;;;5093096;28;20027;-83
2023/07/31 01:31:46;;;;;;;11.27;4.20;;;;;;;;;;5085553;28;20028;-84
2023/07/31 01:34:13;;;;;;;13.95;4.40;;;;;;;;;;5093843;28;20024;-83
2023/07/31 01:36:39;;;;;;;10.02;3.80;;;;;;;;;;5091267;28;20086;-83
2023/07/31 01:39:04;;;;;;;11.70;4.85;;;;;;;;;;5091544;28;20024;-84
2023/07/31 01:41:30;;;;;;;11.32;4.13;;;;;;;;;;5094071;28;20530;-83
2023/07/31 01:43:55;;;;;;;9.88;4.20;;;;;;;;;;5091184;28;20023;-82
2023/07/31 01:46:20;;;;;;;11.13;3.65;;;;;;;;;;5090166;28;20027;-83
2023/07/31 01:48:46;;;;;;;12.23;4.82;;;;;;;;;;5088987;28;20110;-82
2023/07/31 01:51:11;;;;;;;12.02;4.20;;;;;;;;;;5090229;28;20020;-82
2023/07/31 01:53:37;;;;;;;10.63;4.03;;;;;;;;;;5092209;28;20376;-82
2023/07/31 01:56:02;;;;;;;11.07;4.10;;;;;;;;;;5089969;28;20032;-83
2023/07/31 01:58:27;;;;;;;14.73;4.70;;;;;;;;;;5092448;28;20031;-83
2023/07/31 02:00:53;;;;;;;13.27;4.38;;;;;;;;;;5092563;28;20024;-83
2023/07/31 02:03:18;;;;;;;13.32;4.35;;;;;;;;;;5093430;28;20030;-82
2023/07/31 02:05:49;;;;;;;14.07;4.63;;;;;;;;;;5093475;28;20024;-83
2023/07/31 02:08:15;;;;;;;12.10;4.70;;;;;;;;;;5089685;28;20476;-83
2023/07/31 02:10:41;;;;;;;11.70;4.90;;;;;;;;;;5090814;28;20034;-83
2023/07/31 02:13:06;;;;;;;11.43;5.05;;;;;;;;;;5082449;28;20016;-87
2023/07/31 02:15:32;;;;;;;13.73;4.97;;;;;;;;;;5090426;28;20028;-87
2023/07/31 02:17:57;;;;;;;12.95;4.50;;;;;;;;;;5088708;28;20024;-88
2023/07/31 02:20:23;;;;;;;11.52;4.45;;;;;;;;;;5080621;28;20043;-87
2023/07/31 02:22:48;;;;;;;12.85;4.40;;;;;;;;;;5092058;28;20025;-86
2023/07/31 02:25:14;;;;;;;13.50;4.97;;;;;;;;;;5079381;28;20024;-87
2023/07/31 02:27:39;;;;;;;13.05;4.60;;;;;;;;;;5084364;28;20077;-87
2023/07/31 02:30:05;;;;;;;13.75;4.60;;;;;;;;;;5091828;28;20061;-87
2023/07/31 02:32:31;;;;;;;11.80;4.47;;;;;;;;;;5087285;28;20012;-87
2023/07/31 02:34:56;;;;;;;10.52;3.90;;;;;;;;;;5089982;28;20028;-86
2023/07/31 02:37:22;;;;;;;15.75;4.13;;;;;;;;;;5088683;28;20259;-87
2023/07/31 02:39:47;;;;;;;12.93;4.30;;;;;;;;;;5075964;28;20032;-85
2023/07/31 02:42:13;;;;;;;13.05;4.43;;;;;;;;;;5095734;28;20023;-87
2023/07/31 02:44:39;;;;;;;11.98;4.07;;;;;;;;;;5084159;28;20025;-86
2023/07/31 02:47:04;;;;;;;14.15;4.20;;;;;;;;;;5084682;28;20494;-86
2023/07/31 02:49:29;;;;;;;9.38;3.75;;;;;;;;;;5091147;28;20023;-87
2023/07/31 02:51:55;;;;;;;9.52;3.70;;;;;;;;;;5092884;28;20498;-87
2023/07/31 02:54:21;;;;;;;10.82;4.05;;;;;;;;;;5083063;28;20027;-88
2023/07/31 02:56:47;;;;;;;11.88;4.10;;;;;;;;;;5079326;28;20030;-86
2023/07/31 02:59:13;;;;;;;13.15;4.40;;;;;;;;;;5075710;28;20028;-87
2023/07/31 03:01:38;;;;;;;13.27;3.90;;;;;;;;;;5092459;28;20069;-87
2023/07/31 03:04:04;;;;;;;10.30;3.60;;;;;;;;;;5090874;28;20082;-86
2023/07/31 03:06:29;;;;;;;16.23;4.45;;;;;;;;;;5089423;28;20495;-86
2023/07/31 03:08:55;;;;;;;11.20;3.55;;;;;;;;;;5086993;28;20027;-87
2023/07/31 03:11:20;;;;;;;14.55;4.00;;;;;;;;;;5092256;28;20062;-86
2023/07/31 03:13:45;;;;;;;10.15;3.90;;;;;;;;;;5092293;28;20020;-86
2023/07/31 03:16:11;;;;;;;18.08;4.00;;;;;;;;;;5090769;28;20510;-87
2023/07/31 03:18:36;;;;;;;8.77;3.83;;;;;;;;;;5072703;28;20032;-85
2023/07/31 03:21:02;;;;;;;13.98;3.67;;;;;;;;;;5086164;28;20028;-87
2023/07/31 03:23:27;;;;;;;11.48;3.60;;;;;;;;;;5093240;28;20070;-77
2023/07/31 03:26:01;;;;;;;11.13;4.03;;;;;;;;;;5092117;28;20020;-77
2023/07/31 03:28:26;;;;;;;12.00;3.83;;;;;;;;;;5090725;28;20031;-77
2023/07/31 03:30:52;;;;;;;10.73;3.65;;;;;;;;;;5089333;28;20020;-77
2023/07/31 03:33:18;;;;;;;13.18;4.10;;;;;;;;;;5085414;28;20078;-77
2023/07/31 03:35:43;;;;;;;9.75;4.03;;;;;;;;;;5088700;28;20070;-76
2023/07/31 03:38:09;;;;;;;10.05;3.72;;;;;;;;;;5093164;28;20031;-77
2023/07/31 03:40:34;;;;;;;12.00;4.00;;;;;;;;;;5091112;28;20024;-77
2023/07/31 03:42:59;;;;;;;11.70;3.72;;;;;;;;;;5092063;28;20027;-77
2023/07/31 03:45:25;;;;;;;10.07;3.90;;;;;;;;;;5087731;28;20657;-77
2023/07/31 03:47:50;;;;;;;12.52;4.18;;;;;;;;;;5089484;28;20035;-77
2023/07/31 03:50:16;;;;;;;12.73;3.80;;;;;;;;;;5087083;28;20020;-77
2023/07/31 03:52:42;;;;;;;12.20;4.63;;;;;;;;;;5087053;28;20036;-76
2023/07/31 03:55:07;;;;;;;11.27;4.10;;;;;;;;;;5088344;28;20028;-77
2023/07/31 03:57:33;;;;;;;13.60;3.80;;;;;;;;;;5089358;28;20027;-77
2023/07/31 03:59:58;;;;;;;7.10;3.15;;;;;;;;;;5089288;28;20028;-76
2023/07/31 04:02:24;;;;;;;13.20;3.72;;;;;;;;;;5090254;28;20028;-77
2023/07/31 04:04:49;;;;;;;9.35;3.70;;;;;;;;;;5093699;28;20057;-76
2023/07/31 04:07:15;;;;;;;8.30;3.50;;;;;;;;;;5094280;28;20020;-77
2023/07/31 04:09:40;;;;;;;10.55;3.90;;;;;;;;;;5100363;28;20455;-77
2023/07/31 04:12:06;;;;;;;9.38;3.85;;;;;;;;;;5091304;28;20020;-77
2023/07/31 04:14:31;;;;;;;13.07;4.03;;;;;;;;;;5093598;28;20035;-77
2023/07/31 04:16:56;;;;;;;10.80;3.53;;;;;;;;;;5086114;28;20051;-77
2023/07/31 04:19:22;;;;;;;10.60;3.97;;;;;;;;;;5100871;28;20023;-77
2023/07/31 04:21:47;;;;;;;11.98;3.40;;;;;;;;;;5087819;28;20036;-77
2023/07/31 04:24:13;;;;;;;11.10;3.15;;;;;;;;;;5093646;28;20066;-77
2023/07/31 04:26:38;;;;;;;10.02;3.75;;;;;;;;;;5087046;28;20032;-77
2023/07/31 04:29:03;;;;;;;12.90;3.83;;;;;;;;;;5089111;28;20032;-77
2023/07/31 04:31:29;;;;;;;11.90;3.80;;;;;;;;;;5089401;28;20020;-77
2023/07/31 04:33:54;;;;;;;9.30;3.42;;;;;;;;;;5096320;28;20025;-77
2023/07/31 04:36:19;;;;;;;10.90;3.47;;;;;;;;;;5093656;28;20101;-77
2023/07/31 04:38:45;;;;;;;11.20;3.58;;;;;;;;;;5094618;28;20024;-77
2023/07/31 04:41:10;;;;;;;10.30;3.60;;;;;;;;;;5087775;28;20043;-77
2023/07/31 04:43:38;;;;;;;13.02;3.60;;;;;;;;;;5088227;28;20100;-77
2023/07/31 04:46:04;;;;;;;11.80;3.50;;;;;;;;;;5088085;28;20027;-77
2023/07/31 04:48:29;;;;;;;11.95;3.42;;;;;;;;;;5085836;28;20027;-77
2023/07/31 04:50:55;;;;;;;10.65;3.65;;;;;;;;;;5084391;28;20024;-76
2023/07/31 04:53:20;;;;;;;9.20;3.25;;;;;;;;;;5094097;28;20027;-78
2023/07/31 04:55:46;;;;;;;9.32;3.42;;;;;;;;;;5090088;28;20047;-77
2023/07/31 04:58:11;;;;;;;8.40;3.45;;;;;;;;;;5093496;28;20096;-77
2023/07/31 05:00:36;;;;;;;9.63;3.10;;;;;;;;;;5090326;28;20028;-77
2023/07/31 05:03:02;;;;;;;11.15;3.85;;;;;;;;;;5097727;28;20373;-77
2023/07/31 05:05:27;;;;;;;8.55;3.28;;;;;;;;;;5093850;28;20085;-76
2023/07/31 05:07:53;;;;;;;8.65;3.10;;;;;;;;;;5094194;28;20054;-77
2023/07/31 05:10:18;;;;;;;8.75;3.30;;;;;;;;;;5088648;28;20030;-77
2023/07/31 05:12:43;;;;;;;8.75;3.20;;;;;;;;;;5091222;28;20016;-77
2023/07/31 05:15:09;;;;;;;12.75;3.80;;;;;;;;;;5087442;28;20036;-77
2023/07/31 05:17:35;;;;;;;7.82;3.40;;;;;;;;;;5090242;28;20023;-76
2023/07/31 05:20:00;;;;;;;11.38;3.35;;;;;;;;;;5092596;28;20046;-77
2023/07/31 05:22:25;;;;;;;12.05;3.20;;;;;;;;;;5089041;28;20463;-76
2023/07/31 05:24:51;;;;;;;10.07;2.90;;;;;;;;;;5092641;28;20085;-77
2023/07/31 05:27:18;;;;;;;9.23;3.17;;;;;;;;;;5083012;28;20029;-77
2023/07/31 05:29:44;;;;;;;11.40;3.17;;;;;;;;;;5091110;28;20487;-77
2023/07/31 05:32:10;;;;;;;6.65;2.90;;;;;;;;;;5091496;28;20485;-77
2023/07/31 05:34:35;;;;;;;8.27;3.25;;;;;;;;;;5093413;28;20063;-77
2023/07/31 05:37:00;;;;;;;7.40;2.78;;;;;;;;;;5092664;28;20028;-77
2023/07/31 05:39:26;;;;;;;7.30;2.88;;;;;;;;;;5092144;28;20043;-76
2023/07/31 05:41:51;;;;;;;7.72;2.80;;;;;;;;;;5092539;28;20024;-77
2023/07/31 05:44:16;;;;;;;6.18;2.83;;;;;;;;;;5092336;28;20031;-76
2023/07/31 05:46:42;;;;;;;8.13;3.42;;;;;;;;;;5093482;28;20051;-76
2023/07/31 05:49:07;;;;;;;8.88;2.95;;;;;;;;;;5097691;28;20055;-76
2023/07/31 05:51:33;;;;;;;8.35;3.13;;;;;;;;;;5088911;28;20123;-75
2023/07/31 05:53:58;;;;;;;7.28;3.15;;;;;;;;;;5090401;28;20016;-75
2023/07/31 05:56:23;;;;;;;7.60;2.83;;;;;;;;;;5093187;28;20028;-76
2023/07/31 05:58:50;;;;;;;8.63;3.20;;;;;;;;;;5092114;28;20032;-76
2023/07/31 06:01:16;;;;;;;8.68;2.90;;;;;;;;;;5092300;28;20020;-75
2023/07/31 06:03:42;;;;;;;9.32;2.88;;;;;;;;;;5091914;28;20497;-75
2023/07/31 06:06:07;;;;;;;9.85;3.15;;;;;;;;;;5089544;28;20110;-76
2023/07/31 06:08:33;;;;;;;6.35;2.67;;;;;;;;;;5090741;28;20032;-75
2023/07/31 06:10:58;;;;;;;6.22;2.70;;;;;;;;;;5091690;28;20032;-76
2023/07/31 06:13:24;;;;;;;8.43;2.60;;;;;;;;;;5089530;28;20025;-75
2023/07/31 06:15:49;;;;;;;8.85;2.80;;;;;;;;;;5090120;28;20031;-75
2023/07/31 06:18:14;;;;;;;10.40;2.88;;;;;;;;;;5090016;28;20055;-76
2023/07/31 06:20:40;;;;;;;6.93;2.60;;;;;;;;;;5092895;28;20475;-75
2023/07/31 06:23:06;;;;;;;7.28;2.58;;;;;;;;;;5091638;28;20019;-75
2023/07/31 06:25:31;;;;;;;4.97;2.40;;;;;;;;;;5092060;28;20085;-75
2023/07/31 06:27:57;;;;;;;4.03;2.05;;;;;;;;;;5091495;28;20020;-76
2023/07/31 06:30:22;;;;;;;5.43;2.30;;;;;;;;;;5093013;28;20041;-75
2023/07/31 06:32:47;;;;;;;5.05;2.20;;;;;;;;;;5091020;28;20024;-75
2023/07/31 06:35:13;;;;;;;5.40;1.85;;;;;;;;;;5091811;28;20024;-75
2023/07/31 06:37:40;;;;;;;4.07;1.90;;;;;;;;;;5101956;28;20024;-76
2023/07/31 06:40:08;;;;;;;4.13;1.90;;;;;;;;;;5092539;28;20016;-75
2023/07/31 06:42:34;;;;;;;3.80;1.60;;;;;;;;;;5090098;28;20031;-75
2023/07/31 06:45:00;;;;;;;3.40;1.58;;;;;;;;;;5092524;28;20114;-75
2023/07/31 06:47:26;;;;;;;6.68;1.85;;;;;;;;;;5091281;28;20093;-75
2023/07/31 06:49:51;;;;;;;3.03;1.70;;;;;;;;;;5086442;28;20020;-76
2023/07/31 06:52:16;;;;;;;4.50;1.50;;;;;;;;;;5094605;28;20032;-75
2023/07/31 06:54:42;;;;;;;4.72;1.55;;;;;;;;;;5084461;28;20165;-75
2023/07/31 06:57:07;;;;;;;2.97;1.50;;;;;;;;;;5091286;28;20030;-75
2023/07/31 06:59:33;;;;;;;4.00;1.70;;;;;;;;;;5083607;28;20247;-75
2023/07/31 07:01:58;;;;;;;3.47;1.20;;;;;;;;;;5088765;28;20067;-75
2023/07/31 07:04:24;;;;;;;4.53;1.48;;;;;;;;;;5084135;28;20024;-75
2023/07/31 07:06:49;;;;;;;3.58;1.10;;;;;;;;;;5092512;28;20035;-76
2023/07/31 07:09:15;;;;;;;2.63;1.50;;;;;;;;;;5095513;28;20024;-75
2023/07/31 07:11:40;;;;;;;2.00;1.25;;;;;;;;;;5079146;28;20031;-75
2023/07/31 07:14:06;;;;;;;2.38;1.10;;;;;;;;;;5094721;28;20032;-75
2023/07/31 07:16:31;;;;;;;2.40;1.23;;;;;;;;;;5079014;28;20029;-75
2023/07/31 07:18:57;;;;;;;2.35;1.20;;;;;;;;;;5089229;28;20032;-75
2023/07/31 07:21:23;;;;;;;1.63;1.00;;;;;;;;;;5093937;28;20106;-75
2023/07/31 07:23:48;;;;;;;1.77;1.08;;;;;;;;;;5086615;28;20452;-75
2023/07/31 07:26:13;;;;;;;3.95;1.00;;;;;;;;;;5092888;28;20042;-77
2023/07/31 07:28:39;;;;;;;2.40;1.10;;;;;;;;;;5085553;28;20024;-76
2023/07/31 07:31:04;;;;;;;2.05;1.08;;;;;;;;;;5094673;28;20035;-75
2023/07/31 07:33:29;;;;;;;3.13;1.65;;;;;;;;;;5090180;28;20024;-75
2023/07/31 07:35:55;;;;;;;2.17;1.33;;;;;;;;;;5088053;28;20107;-75
2023/07/31 07:38:20;;;;;;;2.35;1.30;;;;;;;;;;5093254;28;20016;-76
2023/07/31 07:40:50;;;;;;;2.42;1.42;;;;;;;;;;5098426;28;20015;-75
2023/07/31 07:43:16;;;;;;;4.28;1.55;;;;;;;;;;5096793;28;20375;-75
2023/07/31 07:45:41;;;;;;;2.97;1.50;;;;;;;;;;5091375;28;20024;-75
2023/07/31 07:48:06;;;;;;;2.17;1.30;;;;;;;;;;5090142;28;20107;-77
2023/07/31 07:50:32;;;;;;;4.63;1.50;;;;;;;;;;5094957;28;20028;-76
2023/07/31 07:52:58;;;;;;;6.78;1.98;;;;;;;;;;5094367;28;20020;-75
2023/07/31 07:55:23;;;;;;;4.75;1.60;;;;;;;;;;5094435;28;20086;-76
2023/07/31 07:57:50;;;;;;;3.72;1.45;;;;;;;;;;5096550;28;20024;-75
2023/07/31 08:00:16;;;;;;;4.20;1.80;;;;;;;;;;5077491;28;20031;-76
2023/07/31 08:02:42;;;;;;;4.88;1.65;;;;;;;;;;5094268;28;20418;-75
2023/07/31 08:05:08;;;;;;;3.42;1.90;;;;;;;;;;5094370;28;20026;-86
2023/07/31 08:07:33;;;;;;;3.83;1.85;;;;;;;;;;5084231;28;20487;-86
2023/07/31 08:09:59;;;;;;;3.13;1.70;;;;;;;;;;5093612;28;20020;-86
2023/07/31 08:12:24;;;;;;;4.03;1.92;;;;;;;;;;5092123;28;20027;-86
2023/07/31 08:14:49;;;;;;;4.25;2.03;;;;;;;;;;5091331;28;20484;-84
2023/07/31 08:17:15;;;;;;;3.22;2.17;;;;;;;;;;5093958;28;20012;-87
2023/07/31 08:19:40;;;;;;;4.68;2.42;;;;;;;;;;5089410;28;20564;-84
2023/07/31 08:22:05;;;;;;;7.72;2.10;;;;;;;;;;5090373;28;20027;-85
2023/07/31 08:24:31;;;;;;;4.85;2.13;;;;;;;;;;5089634;28;20024;-86
2023/07/31 08:26:57;;;;;;;3.80;2.25;;;;;;;;;;5093910;28;20020;-86
2023/07/31 08:29:22;;;;;;;6.28;2.20;;;;;;;;;;5083587;28;20028;-87
2023/07/31 08:31:48;;;;;;;3.83;2.40;;;;;;;;;;5087941;28;20024;-87
2023/07/31 08:34:13;;;;;;;4.72;2.28;;;;;;;;;;5089860;28;20433;-86
2023/07/31 08:36:38;;;;;;;4.80;2.38;;;;;;;;;;5093716;28;20040;-85
2023/07/31 08:39:04;;;;;;;3.85;2.38;;;;;;;;;;5092996;28;20116;-87
2023/07/31 08:41:29;;;;;;;3.63;2.33;;;;;;;;;;5093987;28;20032;-86
2023/07/31 08:43:56;;;;;;;3.67;2.40;;;;;;;;;;5081913;28;20012;-86
2023/07/31 08:46:22;;;;;;;4.05;2.40;;;;;;;;;;5091780;28;20047;-85
2023/07/31 08:48:48;;;;;;;4.13;2.50;;;;;;;;;;5093209;28;20028;-86
2023/07/31 08:51:15;;;;;;;7.63;2.80;;;;;;;;;;5094976;28;20059;-87
2023/07/31 08:53:41;;;;;;;4.32;2.78;;;;;;;;;;5094550;28;20475;-85
2023/07/31 08:56:07;;;;;;;7.75;2.92;;;;;;;;;;5084717;28;20028;-85
2023/07/31 08:58:32;;;;;;;4.45;2.70;;;;;;;;;;5083345;28;20077;-85
2023/07/31 09:01:01;;;;;;;4.47;2.60;;;;;;;;;;5088770;28;20020;-84
2023/07/31 09:03:27;;;;;;;4.15;2.40;;;;;;;;;;5086973;28;20039;-87
2023/07/31 09:05:55;;;;;;;5.20;2.80;;;;;;;;;;5094468;28;20028;-87
2023/07/31 09:08:21;;;;;;;5.00;3.10;;;;;;;;;;5094405;28;20391;-86
2023/07/31 09:10:47;;;;;;;4.85;2.78;;;;;;;;;;5094025;28;20153;-87
2023/07/31 09:13:14;;;;;;;6.70;3.28;;;;;;;;;;5090919;28;20020;-76
2023/07/31 09:15:42;;;;;;;5.93;3.03;;;;;;;;;;5092648;28;20032;-75
2023/07/31 09:18:08;;;;;;;5.97;3.20;;;;;;;;;;5087376;28;20103;-75
2023/07/31 09:20:35;;;;;;;4.88;3.55;;;;;;;;;;5091592;28;20090;-75
2023/07/31 09:23:12;;;;;;;8.77;3.45;;;;;;;;;;5087477;28;20022;-75
2023/07/31 09:25:39;;;;;;;6.55;3.53;;;;;;;;;;5082727;28;20020;-75
2023/07/31 09:28:07;;;;;;;5.10;3.30;;;;;;;;;;5093731;28;20102;-76
2023/07/31 09:30:48;;;;;;;5.43;3.70;;;;;;;;;;5084653;28;20468;-76
2023/07/31 09:33:14;;;;;;;6.65;3.80;;;;;;;;;;5088094;28;20065;-76
2023/07/31 09:35:40;;;;;;;6.38;3.90;;;;;;;;;;5091442;28;20472;-76
2023/07/31 09:38:10;;;;;;;6.32;4.00;;;;;;;;;;5080160;28;20442;-75
2023/07/31 09:40:41;;;;;;;6.47;3.88;;;;;;;;;;5096858;28;20023;-76
2023/07/31 09:43:10;;;;;;;6.18;4.18;;;;;;;;;;5084398;28;20012;-76
2023/07/31 09:45:40;;;;;;;6.65;4.50;;;;;;;;;;5080043;28;20400;-75
2023/07/31 09:48:10;;;;;;;8.73;4.68;;;;;;;;;;5086409;28;20039;-75
2023/07/31 09:50:41;;;;;;;7.50;4.15;;;;;;;;;;5087441;28;20046;-76
2023/07/31 09:53:08;;;;;;;7.45;4.43;;;;;;;;;;5086028;28;20048;-75
2023/07/31 09:55:36;;;;;;;11.00;4.72;;;;;;;;;;5093251;28;20027;-75
2023/07/31 09:58:07;;;;;;;7.63;4.88;;;;;;;;;;5097950;28;20492;-75
2023/07/31 10:00:33;;;;;;;8.68;4.63;;;;;;;;;;5092112;28;20437;-75
2023/07/31 10:03:00;;;;;;;9.68;4.32;;;;;;;;;;5091820;28;20020;-75
2023/07/31 10:05:42;;;;;;;8.27;4.25;;;;;;;;;;5090977;28;20414;-75
2023/07/31 10:08:10;;;;;;;6.22;4.35;;;;;;;;;;5092494;28;20031;-75
2023/07/31 10:10:37;;;;;;;7.55;4.60;;;;;;;;;;5095693;28;20407;-75
2023/07/31 10:13:04;;;;;;;7.63;4.30;;;;;;;;;;5090560;28;20020;-76
2023/07/31 10:15:30;;;;;;;8.07;4.40;;;;;;;;;;5093458;28;20057;-75
2023/07/31 10:17:57;;;;;;;7.47;4.53;;;;;;;;;;5091843;28;20416;-75
2023/07/31 10:20:24;;;;;;;9.80;4.45;;;;;;;;;;5097212;28;20107;-76
2023/07/31 10:22:51;;;;;;;7.05;4.32;;;;;;;;;;5090296;28;20024;-88
2023/07/31 10:25:18;;;;;;;6.50;4.07;;;;;;;;;;5068317;28;20537;-76
2023/07/31 10:27:47;;;;;;;10.93;4.35;;;;;;;;;;5091288;28;20423;-76
2023/07/31 10:30:15;;;;;;;7.03;4.22;;;;;;;;;;5088779;28;20056;-75
2023/07/31 10:32:42;;;;;;;6.93;4.60;;;;;;;;;;5082737;28;20059;-75
2023/07/31 10:35:09;;;;;;;5.82;3.78;;;;;;;;;;5091303;28;20130;-76
2023/07/31 10:37:40;;;;;;;7.78;4.00;;;;;;;;;;5092566;28;20030;-75
2023/07/31 10:40:09;;;;;;;7.82;3.70;;;;;;;;;;5095414;28;20059;-76
2023/07/31 10:42:38;;;;;;;5.43;4.00;;;;;;;;;;5093605;28;20028;-75
2023/07/31 10:45:11;;;;;;;7.85;3.90;;;;;;;;;;5098751;28;20050;-77
2023/07/31 10:47:46;;;;;;;8.45;3.78;;;;;;;;;;5092438;28;20436;-77
2023/07/31 10:50:13;;;;;;;5.82;3.90;;;;;;;;;;5089848;28;20073;-76
2023/07/31 10:52:38;;;;;;;6.68;3.70;;;;;;;;;;5090945;28;20467;-76
2023/07/31 10:55:27;;;;;;;6.90;3.53;;;;;;;;;;5092543;28;20031;-76
2023/07/31 10:58:04;;;;;;;6.07;3.53;;;;;;;;;;5091232;28;20085;-76
2023/07/31 11:00:29;;;;;;;6.93;3.78;;;;;;;;;;5090461;28;20360;-76
2023/07/31 11:03:00;;;;;;;6.10;3.85;;;;;;;;;;5094855;28;20027;-75
2023/07/31 11:05:41;;;;;;;6.95;4.05;;;;;;;;;;5089026;28;20024;-75
2023/07/31 11:08:24;;;;;;;6.35;4.32;;;;;;;;;;5095568;28;20103;-76
2023/07/31 11:11:02;;;;;;;;;;;;;;;;;;5099402;28;20115;-76
2023/07/31 11:13:52;;;;;;;5.75;3.75;;;;;;;;;;5095275;28;20398;-77
2023/07/31 11:16:20;;;;;;;5.10;3.47;;;;;;;;;;5097180;28;20356;-75
2023/07/31 11:18:48;;;;;;;6.03;4.00;;;;;;;;;;5087011;28;20016;-76
2023/07/31 11:21:15;;;;;;;4.95;3.40;;;;;;;;;;5086231;28;20027;-77
2023/07/31 11:23:41;;;;;;;6.63;3.85;;;;;;;;;;5092585;28;20412;-76
2023/07/31 11:26:07;;;;;;;5.45;3.40;;;;;;;;;;5073821;28;20171;-77
2023/07/31 11:28:34;;;;;;;6.90;3.45;;;;;;;;;;5099559;28;20021;-75
2023/07/31 11:31:01;;;;;;;7.03;4.00;;;;;;;;;;5090830;28;20016;-76
2023/07/31 11:33:26;;;;;;;7.28;3.47;;;;;;;;;;5088277;28;20460;-76
2023/07/31 11:35:52;;;;;;;6.28;3.33;;;;;;;;;;5110106;28;20035;-76
2023/07/31 11:38:28;;;;;;;7.18;3.83;;;;;;;;;;5096005;28;20447;-76
2023/07/31 11:41:04;;;;;;;10.75;3.60;;;;;;;;;;5085417;28;20036;-75
2023/07/31 11:43:31;;;;;;;11.60;3.97;;;;;;;;;;5086116;28;20475;-76
2023/07/31 11:45:59;;;;;;;5.93;3.50;;;;;;;;;;5095296;28;20391;-75
2023/07/31 11:48:27;;;;;;;7.72;3.78;;;;;;;;;;5087061;28;20479;-75
2023/07/31 11:50:54;;;;;;;7.20;3.55;;;;;;;;;;5095213;28;20024;-76
2023/07/31 11:53:29;;;;;;;7.82;3.47;;;;;;;;;;5094681;28;20047;-76
2023/07/31 11:55:55;;;;;;;4.85;3.25;;;;;;;;;;5091887;28;20604;-76
2023/07/31 11:58:21;;;;;;;7.95;3.80;;;;;;;;;;5093069;28;20031;-76
2023/07/31 12:00:47;;;;;;;6.97;4.10;;;;;;;;;;5097046;28;20023;-76
2023/07/31 12:03:12;;;;;;;7.68;3.40;;;;;;;;;;5094356;28;20020;-76
2023/07/31 12:05:38;;;;;;;7.03;3.60;;;;;;;;;;5098959;28;20372;-76
2023/07/31 12:08:10;;;;;;;6.43;3.75;;;;;;;;;;5091878;28;20107;-76
2023/07/31 12:10:35;;;;;;;5.73;4.27;;;;;;;;;;5095177;28;20027;-76
2023/07/31 12:13:10;;;;;;;6.88;3.67;;;;;;;;;;5095252;28;20020;-76
2023/07/31 12:15:46;;;;;;;6.55;4.07;;;;;;;;;;5086586;28;20544;-76
2023/07/31 12:18:13;;;;;;;7.57;4.25;;;;;;;;;;5081750;28;20505;-76
2023/07/31 12:20:48;;;;;;;7.07;4.13;;;;;;;;;;5094098;28;20103;-76
2023/07/31 12:23:19;;;;;;;6.65;4.30;;;;;;;;;;5091127;28;20005;-76
2023/07/31 12:25:44;;;;;;;6.43;3.55;;;;;;;;;;5092645;28;20381;-77
2023/07/31 12:28:13;;;;;;;5.35;3.70;;;;;;;;;;5085183;28;20426;-76
2023/07/31 12:30:40;;;;;;;6.28;3.90;;;;;;;;;;5094937;28;20028;-76
2023/07/31 12:33:15;;;;;;;5.13;3.67;;;;;;;;;;5094536;28;20020;-76
2023/07/31 12:35:44;;;;;;;5.80;3.47;;;;;;;;;;5088000;28;20077;-76
2023/07/31 12:38:09;;;;;;;6.00;3.85;;;;;;;;;;5082902;28;20473;-76
2023/07/31 12:40:38;;;;;;;12.32;4.07;;;;;;;;;;5087062;28;20039;-76
2023/07/31 12:43:03;;;;;;;9.25;4.22;;;;;;;;;;5090869;28;20100;-89
2023/07/31 12:45:29;;;;;;;7.53;3.92;;;;;;;;;;5091939;28;20059;-89
2023/07/31 12:47:55;;;;;;;5.65;3.67;;;;;;;;;;5100652;28;20027;-87
2023/07/31 12:50:20;;;;;;;6.72;4.00;;;;;;;;;;5090543;28;20020;-89
2023/07/31 12:52:45;;;;;;;5.85;3.78;;;;;;;;;;5093169;28;20406;-87
2023/07/31 12:55:11;;;;;;;5.53;3.55;;;;;;;;;;5081647;28;20027;-88
2023/07/31 12:57:36;;;;;;;7.35;3.88;;;;;;;;;;5084945;28;21311;-88
2023/07/31 13:00:03;;;;;;;6.32;3.58;;;;;;;;;;5098774;28;20024;-90
2023/07/31 13:02:28;;;;;;;5.55;3.55;;;;;;;;;;5094474;28;20425;-89
2023/07/31 13:04:54;;;;;;;7.90;4.30;;;;;;;;;;5086827;28;20028;-88
2023/07/31 13:07:19;;;;;;;6.20;3.78;;;;;;;;;;5110330;28;20471;-87
2023/07/31 13:09:45;;;;;;;7.60;3.90;;;;;;;;;;5083288;28;20024;-87
2023/07/31 13:12:10;;;;;;;6.68;3.55;;;;;;;;;;5078345;28;20365;-88
2023/07/31 13:14:36;;;;;;;7.10;3.90;;;;;;;;;;5087335;28;20090;-90
2023/07/31 13:17:01;;;;;;;6.28;4.45;;;;;;;;;;5089977;28;20023;-88
2023/07/31 13:19:27;;;;;;;6.80;4.18;;;;;;;;;;5083609;28;20495;-89
2023/07/31 13:21:52;;;;;;;9.07;3.67;;;;;;;;;;5077009;28;20032;-88
2023/07/31 13:24:17;;;;;;;6.13;4.25;;;;;;;;;;5089999;28;20023;-87
2023/07/31 13:26:43;;;;;;;5.97;4.30;;;;;;;;;;5086161;28;20085;-89
2023/07/31 13:29:08;;;;;;;10.07;4.10;;;;;;;;;;5080701;28;20031;-89
2023/07/31 13:31:34;;;;;;;7.90;4.25;;;;;;;;;;5079949;28;20205;-89
2023/07/31 13:33:59;;;;;;;7.47;4.70;;;;;;;;;;5088520;28;20020;-90
2023/07/31 13:36:24;;;;;;;11.85;4.60;;;;;;;;;;5090494;28;20027;-88
2023/07/31 13:38:50;;;;;;;9.35;4.95;;;;;;;;;;5087248;28;20056;-88
2023/07/31 13:41:15;;;;;;;8.05;4.68;;;;;;;;;;5088709;28;20016;-89
2023/07/31 13:43:41;;;;;;;7.93;5.15;;;;;;;;;;5093304;28;20153;-88
2023/07/31 13:46:07;;;;;;;8.63;4.63;;;;;;;;;;5084582;28;20024;-88
2023/07/31 13:48:36;;;;;;;9.38;4.57;;;;;;;;;;5084403;28;20024;-88
2023/07/31 13:51:02;;;;;;;7.70;4.60;;;;;;;;;;5091082;28;20020;-90
2023/07/31 13:53:28;;;;;;;8.65;4.35;;;;;;;;;;5091234;28;20020;-89
2023/07/31 13:55:53;;;;;;;9.98;4.38;;;;;;;;;;5084838;28;20028;-88
2023/07/31 13:58:18;;;;;;;8.20;4.65;;;;;;;;;;5093192;28;20070;-88
2023/07/31 14:00:44;;;;;;;10.20;4.40;;;;;;;;;;5093792;28;20059;-89
2023/07/31 14:03:09;;;;;;;8.02;4.00;;;;;;;;;;5092935;28;20379;-89
2023/07/31 14:05:35;;;;;;;9.18;3.95;;;;;;;;;;5099160;28;20109;-90
2023/07/31 14:08:00;;;;;;;8.25;4.68;;;;;;;;;;5092606;28;20074;-89
2023/07/31 14:10:26;;;;;;;10.00;5.03;;;;;;;;;;5089356;28;20062;-88
2023/07/31 14:12:51;;;;;;;6.43;4.32;;;;;;;;;;5092207;28;20043;-87
2023/07/31 14:15:17;;;;;;;7.90;4.38;;;;;;;;;;5091307;28;20023;-86
2023/07/31 14:17:42;;;;;;;9.18;4.30;;;;;;;;;;5093208;28;20020;-86
2023/07/31 14:20:08;;;;;;;8.75;4.80;;;;;;;;;;5105802;28;20024;-86
2023/07/31 14:22:34;;;;;;;6.60;4.10;;;;;;;;;;5107001;28;20019;-86
2023/07/31 14:24:59;;;;;;;7.55;4.68;;;;;;;;;;5083026;28;20431;-87
2023/07/31 14:27:25;;;;;;;7.85;4.25;;;;;;;;;;5087242;28;20031;-85
2023/07/31 14:29:50;;;;;;;9.68;4.55;;;;;;;;;;5084089;28;20024;-85
2023/07/31 14:32:16;;;;;;;8.88;4.13;;;;;;;;;;5089343;28;20406;-86
2023/07/31 14:34:41;;;;;;;8.60;4.30;;;;;;;;;;5089442;28;20028;-85